createdAt,value
2018-05-04T00:00:16.698Z,984.5
2018-05-04T00:01:18.111Z,984.6
2018-05-04T00:02:19.471Z,984.5
2018-05-04T00:03:20.784Z,984.5
2018-05-04T00:04:22.106Z,984.5
2018-05-04T00:05:23.476Z,984.5
2018-05-04T00:06:24.858Z,984.5
2018-05-04T00:07:26.616Z,984.6
2018-05-04T00:08:27.973Z,984.6
2018-05-04T00:09:29.636Z,984.6
2018-05-04T00:10:30.980Z,984.6
2018-05-04T00:11:32.349Z,984.6
2018-05-04T00:12:33.907Z,984.6
2018-05-04T00:13:35.194Z,984.7
2018-05-04T00:14:36.508Z,984.7
2018-05-04T00:15:38.160Z,984.6
2018-05-04T00:16:39.474Z,984.7
2018-05-04T00:17:40.838Z,984.7
2018-05-04T00:18:42.179Z,984.7
2018-05-04T00:19:43.534Z,984.5
2018-05-04T00:20:44.871Z,984.7
2018-05-04T00:21:50.165Z,984.6
2018-05-04T00:22:51.541Z,984.8
2018-05-04T00:23:53.000Z,984.8
2018-05-04T00:24:54.330Z,984.8
2018-05-04T00:25:55.647Z,984.8
2018-05-04T00:26:57.047Z,984.8
2018-05-04T00:27:58.553Z,984.8
2018-05-04T00:28:59.870Z,984.8
2018-05-04T00:30:01.253Z,984.8
2018-05-04T00:31:02.552Z,984.8
2018-05-04T00:32:03.980Z,984.8
2018-05-04T00:33:05.596Z,984.9
2018-05-04T00:34:07.121Z,984.9
2018-05-04T00:35:08.467Z,984.9
2018-05-04T00:36:09.843Z,984.8
2018-05-04T00:37:11.156Z,984.9
2018-05-04T00:38:12.703Z,984.9
2018-05-04T00:39:14.031Z,985
2018-05-04T00:40:15.362Z,985
2018-05-04T00:41:16.709Z,985
2018-05-04T00:42:18.023Z,985
2018-05-04T00:43:19.768Z,985
2018-05-04T00:44:21.077Z,985
2018-05-04T00:45:22.590Z,985
2018-05-04T00:46:24.023Z,985
2018-05-04T00:47:25.357Z,985
2018-05-04T00:48:26.760Z,985
2018-05-04T00:49:28.135Z,984.9
2018-05-04T00:50:29.457Z,985
2018-05-04T00:51:31.004Z,985
2018-05-04T00:52:32.409Z,985
2018-05-04T00:53:33.799Z,985
2018-05-04T00:54:35.171Z,985
2018-05-04T00:55:36.772Z,985
2018-05-04T00:56:38.105Z,985
2018-05-04T00:57:39.417Z,985
2018-05-04T00:58:40.960Z,985
2018-05-04T00:59:42.480Z,985
2018-05-04T01:00:45.026Z,985
2018-05-04T01:01:47.721Z,984.9
2018-05-04T01:02:49.171Z,985.1
2018-05-04T01:03:50.537Z,985
2018-05-04T01:04:51.881Z,985
2018-05-04T01:05:53.292Z,985.1
2018-05-04T01:06:55.131Z,985.2
2018-05-04T01:07:56.525Z,985.1
2018-05-04T01:08:57.963Z,985.1
2018-05-04T01:09:59.471Z,985.2
2018-05-04T01:11:00.868Z,985.2
2018-05-04T01:12:02.424Z,985.3
2018-05-04T01:13:04.892Z,985
2018-05-04T01:14:07.083Z,985.3
2018-05-04T01:15:08.594Z,985.3
2018-05-04T01:16:10.238Z,985.3
2018-05-04T01:17:11.761Z,985.2
2018-05-04T01:18:16.605Z,985.2
2018-05-04T01:19:18.412Z,985.3
2018-05-04T01:20:19.763Z,985.2
2018-05-04T01:21:24.674Z,985.2
2018-05-04T01:22:26.054Z,985.3
2018-05-04T01:23:27.615Z,985.3
2018-05-04T01:24:29.220Z,985.3
2018-05-04T01:25:30.593Z,985.3
2018-05-04T01:26:31.962Z,985.4
2018-05-04T01:27:36.325Z,985.4
2018-05-04T01:28:37.788Z,985.4
2018-05-04T01:29:39.198Z,985.4
2018-05-04T01:30:40.848Z,985.3
2018-05-04T01:31:42.352Z,985.4
2018-05-04T01:32:43.707Z,985.4
2018-05-04T01:33:45.320Z,985.4
2018-05-04T01:34:46.716Z,985.4
2018-05-04T01:35:48.219Z,985.3
2018-05-04T01:36:50.680Z,985.4
2018-05-04T01:37:52.109Z,985.4
2018-05-04T01:38:53.467Z,985.4
2018-05-04T01:39:55.184Z,985.4
2018-05-04T01:40:56.524Z,985.4
2018-05-04T01:41:57.934Z,985.4
2018-05-04T01:42:59.276Z,985.4
2018-05-04T01:44:00.662Z,985.5
2018-05-04T01:45:02.570Z,985.4
2018-05-04T01:46:03.927Z,985.4
2018-05-04T01:47:05.277Z,985.4
2018-05-04T01:48:06.638Z,985.4
2018-05-04T01:49:08.252Z,985.4
2018-05-04T01:50:09.640Z,985.2
2018-05-04T01:51:11.010Z,985.4
2018-05-04T01:52:12.377Z,985.4
2018-05-04T01:53:13.760Z,985.4
2018-05-04T01:54:15.114Z,985.4
2018-05-04T01:55:16.504Z,985.4
2018-05-04T01:56:18.133Z,985.4
2018-05-04T01:57:19.519Z,985.4
2018-05-04T01:58:21.131Z,985.5
2018-05-04T01:59:22.506Z,985.5
2018-05-04T02:00:24.320Z,985.6
2018-05-04T02:01:25.945Z,985.5
2018-05-04T02:02:27.318Z,985.5
2018-05-04T02:03:29.168Z,985.6
2018-05-04T02:04:30.537Z,985.5
2018-05-04T02:05:32.153Z,985.3
2018-05-04T02:06:33.526Z,985.6
2018-05-04T02:07:34.910Z,985.5
2018-05-04T02:08:36.265Z,985.6
2018-05-04T02:09:37.644Z,985.6
2018-05-04T02:10:39.117Z,985.6
2018-05-04T02:11:40.508Z,985.6
2018-05-04T02:12:41.978Z,985.6
2018-05-04T02:13:43.495Z,985.6
2018-05-04T02:14:45.043Z,985.7
2018-05-04T02:15:46.756Z,985.6
2018-05-04T02:16:48.347Z,985.6
2018-05-04T02:17:49.744Z,985.6
2018-05-04T02:18:51.108Z,985.6
2018-05-04T02:19:52.473Z,985.6
2018-05-04T02:20:53.949Z,985.6
2018-05-04T02:21:55.324Z,985.6
2018-05-04T02:22:56.660Z,985.6
2018-05-04T02:23:58.187Z,985.6
2018-05-04T02:24:59.537Z,985.6
2018-05-04T02:26:00.941Z,985.6
2018-05-04T02:27:02.317Z,985.7
2018-05-04T02:28:03.974Z,985.6
2018-05-04T02:29:05.916Z,985.6
2018-05-04T02:30:07.406Z,985.6
2018-05-04T02:31:09.050Z,985.6
2018-05-04T02:32:10.428Z,985.6
2018-05-04T02:33:11.790Z,985.6
2018-05-04T02:34:13.343Z,985.7
2018-05-04T02:35:14.743Z,985.6
2018-05-04T02:36:16.224Z,985.7
2018-05-04T02:37:17.875Z,985.6
2018-05-04T02:38:19.549Z,985.7
2018-05-04T02:39:20.905Z,985.7
2018-05-04T02:40:22.284Z,985.6
2018-05-04T02:42:25.149Z,985.7
2018-05-04T02:43:26.577Z,985.6
2018-05-04T02:44:28.163Z,985.6
2018-05-04T02:45:29.555Z,985.5
2018-05-04T02:46:31.083Z,985.6
2018-05-04T02:47:32.473Z,985.6
2018-05-04T02:48:33.865Z,985.6
2018-05-04T02:49:35.305Z,985.7
2018-05-04T02:50:37.285Z,985.6
2018-05-04T02:51:38.924Z,985.7
2018-05-04T02:52:40.270Z,985.7
2018-05-04T02:53:41.628Z,985.7
2018-05-04T02:54:43.010Z,985.7
2018-05-04T02:55:44.354Z,985.7
2018-05-04T02:56:47.093Z,985.6
2018-05-04T02:57:51.826Z,985.7
2018-05-04T02:58:53.420Z,985.6
2018-05-04T02:59:54.755Z,985.6
2018-05-04T03:00:56.298Z,985.5
2018-05-04T03:01:57.928Z,985.6
2018-05-04T03:02:59.261Z,985.6
2018-05-04T03:04:00.642Z,985.7
2018-05-04T03:05:02.106Z,985.8
2018-05-04T03:06:03.472Z,985.7
2018-05-04T03:07:05.276Z,985.8
2018-05-04T03:08:06.744Z,985.8
2018-05-04T03:09:08.222Z,985.8
2018-05-04T03:10:09.602Z,985.8
2018-05-04T03:11:10.952Z,985.8
2018-05-04T03:12:12.357Z,985.9
2018-05-04T03:13:13.864Z,985.8
2018-05-04T03:14:15.384Z,985.8
2018-05-04T03:15:16.763Z,985.8
2018-05-04T03:16:18.313Z,985.8
2018-05-04T03:17:20.381Z,985.8
2018-05-04T03:18:22.092Z,985.8
2018-05-04T03:19:23.469Z,985.8
2018-05-04T03:20:24.828Z,985.8
2018-05-04T03:21:26.217Z,985.7
2018-05-04T03:22:27.752Z,985.8
2018-05-04T03:23:29.254Z,985.8
2018-05-04T03:24:32.959Z,985.8
2018-05-04T03:25:34.327Z,985.9
2018-05-04T03:26:35.672Z,985.8
2018-05-04T03:27:37.116Z,985.8
2018-05-04T03:28:38.497Z,985.8
2018-05-04T03:29:40.078Z,985.8
2018-05-04T03:30:41.416Z,985.9
2018-05-04T03:31:42.752Z,985.8
2018-05-04T03:32:44.166Z,985.9
2018-05-04T03:33:45.564Z,985.8
2018-05-04T03:34:46.900Z,985.8
2018-05-04T03:35:48.273Z,985.8
2018-05-04T03:36:49.621Z,985.9
2018-05-04T03:37:51.058Z,985.7
2018-05-04T03:38:52.610Z,985.9
2018-05-04T03:39:53.978Z,985.9
2018-05-04T03:40:55.331Z,985.9
2018-05-04T03:41:56.669Z,985.9
2018-05-04T03:42:58.139Z,985.9
2018-05-04T03:43:59.471Z,985.9
2018-05-04T03:45:00.829Z,985.9
2018-05-04T03:46:02.259Z,986
2018-05-04T03:47:03.636Z,985.8
2018-05-04T03:48:05.088Z,986
2018-05-04T03:49:06.444Z,986
2018-05-04T03:50:07.830Z,985.9
2018-05-04T03:51:09.259Z,985.9
2018-05-04T03:52:10.695Z,985.9
2018-05-04T03:53:12.082Z,985.9
2018-05-04T03:54:13.457Z,985.9
2018-05-04T03:55:14.848Z,985.9
2018-05-04T03:56:16.231Z,986
2018-05-04T03:57:17.619Z,986
2018-05-04T03:58:19.095Z,986
2018-05-04T03:59:20.485Z,985.9
2018-05-04T04:00:21.852Z,985.9
2018-05-04T04:01:23.806Z,985.9
2018-05-04T04:02:25.359Z,985.9
2018-05-04T04:03:26.872Z,985.8
2018-05-04T04:04:28.635Z,985.8
2018-05-04T04:05:29.994Z,985.8
2018-05-04T04:06:31.346Z,985.9
2018-05-04T04:07:32.772Z,985.9
2018-05-04T04:08:34.164Z,985.9
2018-05-04T04:09:35.491Z,985.9
2018-05-04T04:10:36.881Z,985.9
2018-05-04T04:11:38.319Z,986
2018-05-04T04:12:39.699Z,986
2018-05-04T04:13:41.108Z,986
2018-05-04T04:14:42.584Z,986
2018-05-04T04:15:43.933Z,986
2018-05-04T04:16:45.353Z,986.1
2018-05-04T04:17:46.723Z,986.1
2018-05-04T04:18:48.186Z,986.2
2018-05-04T04:19:49.599Z,986.2
2018-05-04T04:20:51.030Z,986.2
2018-05-04T04:21:52.404Z,986.2
2018-05-04T04:22:53.782Z,986.2
2018-05-04T04:23:55.212Z,986.3
2018-05-04T04:24:56.572Z,986.2
2018-05-04T04:25:57.977Z,986.2
2018-05-04T04:26:59.379Z,986.2
2018-05-04T04:28:00.752Z,986.3
2018-05-04T04:29:02.321Z,986.3
2018-05-04T04:30:03.680Z,986.3
2018-05-04T04:31:05.100Z,986.3
2018-05-04T04:32:06.485Z,986.3
2018-05-04T04:33:07.889Z,986.3
2018-05-04T04:34:09.562Z,986.3
2018-05-04T04:35:11.033Z,986.3
2018-05-04T04:36:12.392Z,986.3
2018-05-04T04:37:13.810Z,986.3
2018-05-04T04:38:15.190Z,986.4
2018-05-04T04:39:16.631Z,986.4
2018-05-04T04:40:17.994Z,986.3
2018-05-04T04:41:19.338Z,986.4
2018-05-04T04:42:20.729Z,986.2
2018-05-04T04:43:22.126Z,986.4
2018-05-04T04:44:23.604Z,986.3
2018-05-04T04:45:24.988Z,986.3
2018-05-04T04:46:26.342Z,986.3
2018-05-04T04:47:27.719Z,986.4
2018-05-04T04:48:30.976Z,986.3
2018-05-04T04:49:32.391Z,986.4
2018-05-04T04:50:33.758Z,986.4
2018-05-04T04:51:35.191Z,986.3
2018-05-04T04:52:36.546Z,986.3
2018-05-04T04:53:37.939Z,986.3
2018-05-04T04:54:39.375Z,986.3
2018-05-04T04:55:40.722Z,986.3
2018-05-04T04:56:46.130Z,986.2
2018-05-04T04:57:47.517Z,986.3
2018-05-04T04:58:48.963Z,986.3
2018-05-04T04:59:50.396Z,986.2
2018-05-04T05:00:51.772Z,986.2
2018-05-04T05:01:53.327Z,986.2
2018-05-04T05:02:54.643Z,986.1
2018-05-04T05:03:56.021Z,986.1
2018-05-04T05:04:57.464Z,986.1
2018-05-04T05:05:58.906Z,986.1
2018-05-04T05:07:00.263Z,986.1
2018-05-04T05:08:01.634Z,986.1
2018-05-04T05:09:02.987Z,986.1
2018-05-04T05:10:05.937Z,986
2018-05-04T05:11:07.333Z,986.1
2018-05-04T05:12:08.813Z,986.1
2018-05-04T05:13:12.291Z,986.1
2018-05-04T05:14:13.695Z,986
2018-05-04T05:15:15.741Z,986.1
2018-05-04T05:16:17.563Z,986.1
2018-05-04T05:17:19.330Z,986.1
2018-05-04T05:18:21.350Z,986
2018-05-04T05:19:22.934Z,986.1
2018-05-04T05:20:25.187Z,986
2018-05-04T05:21:26.894Z,986
2018-05-04T05:22:28.351Z,985.9
2018-05-04T05:23:29.714Z,985.9
2018-05-04T05:24:31.113Z,985.9
2018-05-04T05:25:32.638Z,985.8
2018-05-04T05:26:34.063Z,985.9
2018-05-04T05:27:35.485Z,986
2018-05-04T05:28:36.878Z,985.9
2018-05-04T05:29:38.325Z,986
2018-05-04T05:30:39.864Z,985.9
2018-05-04T05:31:41.252Z,986
2018-05-04T05:32:42.661Z,985.9
2018-05-04T05:33:47.333Z,985.9
2018-05-04T05:34:48.786Z,985.8
2018-05-04T05:35:50.497Z,985.8
2018-05-04T05:36:51.884Z,985.8
2018-05-04T05:37:53.318Z,985.8
2018-05-04T05:38:54.884Z,985.8
2018-05-04T05:39:56.243Z,985.9
2018-05-04T05:40:57.673Z,985.9
2018-05-04T05:41:59.169Z,985.9
2018-05-04T05:43:00.656Z,985.9
2018-05-04T05:44:02.099Z,986
2018-05-04T05:45:06.600Z,986.1
2018-05-04T05:46:08.070Z,986
2018-05-04T05:47:09.643Z,986
2018-05-04T05:48:11.050Z,986.1
2018-05-04T05:49:12.447Z,986.1
2018-05-04T05:50:13.868Z,986.1
2018-05-04T05:51:15.341Z,986.2
2018-05-04T05:52:16.710Z,985.9
2018-05-04T05:53:18.127Z,986
2018-05-04T05:54:19.751Z,986
2018-05-04T05:55:21.144Z,986.1
2018-05-04T05:56:24.521Z,985.9
2018-05-04T05:57:25.967Z,986.1
2018-05-04T05:58:27.697Z,986.1
2018-05-04T05:59:29.204Z,985.9
2018-05-04T06:00:30.644Z,986.1
2018-05-04T06:01:32.076Z,986.1
2018-05-04T06:02:44.588Z,986.1
2018-05-04T06:03:46.034Z,985.9
2018-05-04T06:04:47.479Z,986.1
2018-05-04T06:05:48.910Z,986.1
2018-05-04T06:06:50.396Z,986.1
2018-05-04T06:07:51.957Z,986.1
2018-05-04T06:08:59.231Z,986.1
2018-05-04T06:10:00.656Z,986.1
2018-05-04T06:11:02.254Z,986.2
2018-05-04T06:12:03.910Z,986.2
2018-05-04T06:13:08.805Z,986.2
2018-05-04T06:14:10.370Z,986.2
2018-05-04T06:15:11.810Z,986.1
2018-05-04T06:16:13.271Z,986.2
2018-05-04T06:17:14.709Z,986.2
2018-05-04T06:18:16.139Z,986.3
2018-05-04T06:19:17.565Z,986.3
2018-05-04T06:20:19.026Z,986.3
2018-05-04T06:21:20.434Z,986.3
2018-05-04T06:22:21.857Z,986.3
2018-05-04T06:23:23.291Z,986.3
2018-05-04T06:24:24.739Z,986.3
2018-05-04T06:25:26.126Z,986.3
2018-05-04T06:26:27.534Z,986.2
2018-05-04T06:27:29.108Z,986.3
2018-05-04T06:28:33.515Z,986.3
2018-05-04T06:29:34.933Z,986.3
2018-05-04T06:30:36.334Z,986.4
2018-05-04T06:31:37.723Z,986.5
2018-05-04T06:32:39.365Z,986.5
2018-05-04T06:33:43.312Z,986.6
2018-05-04T06:34:44.670Z,986.7
2018-05-04T06:35:46.167Z,986.8
2018-05-04T06:36:47.570Z,986.8
2018-05-04T06:37:49.207Z,986.8
2018-05-04T06:38:50.704Z,986.9
2018-05-04T06:39:52.093Z,986.8
2018-05-04T06:40:53.537Z,986.9
2018-05-04T06:41:54.981Z,987
2018-05-04T06:42:56.425Z,987
2018-05-04T06:43:57.855Z,987.2
2018-05-04T06:44:59.188Z,986.8
2018-05-04T06:46:00.688Z,987
2018-05-04T06:47:02.186Z,986.9
2018-05-04T06:48:03.727Z,987.1
2018-05-04T06:49:05.257Z,987.1
2018-05-04T06:50:06.715Z,987.2
2018-05-04T06:51:08.188Z,987.2
2018-05-04T06:52:14.717Z,987.2
2018-05-04T06:53:16.223Z,987.2
2018-05-04T06:54:20.471Z,987.2
2018-05-04T06:55:21.863Z,987.3
2018-05-04T06:56:23.307Z,987.3
2018-05-04T06:57:24.685Z,987.3
2018-05-04T06:58:26.130Z,987.4
2018-05-04T06:59:27.613Z,987.3
2018-05-04T07:00:29.017Z,987.4
2018-05-04T07:01:30.519Z,987.4
2018-05-04T07:02:31.986Z,987.3
2018-05-04T07:03:33.428Z,987.4
2018-05-04T07:04:34.831Z,987.6
2018-05-04T07:05:36.240Z,987.9
2018-05-04T07:06:37.617Z,987.5
2018-05-04T07:07:38.986Z,987.4
2018-05-04T07:08:40.747Z,987.4
2018-05-04T07:09:42.107Z,987.4
2018-05-04T07:10:43.615Z,987.5
2018-05-04T07:11:45.024Z,987.5
2018-05-04T07:12:46.419Z,987.6
2018-05-04T07:13:47.855Z,987.7
2018-05-04T07:14:49.229Z,987.7
2018-05-04T07:15:50.759Z,987.7
2018-05-04T07:16:52.199Z,987.7
2018-05-04T07:17:53.689Z,987.7
2018-05-04T07:18:55.400Z,987.8
2018-05-04T07:19:56.873Z,987.8
2018-05-04T07:20:58.271Z,987.9
2018-05-04T07:21:59.697Z,987.9
2018-05-04T07:23:01.311Z,988
2018-05-04T07:24:03.076Z,988
2018-05-04T07:25:04.517Z,988.2
2018-05-04T07:26:06.014Z,988
2018-05-04T07:27:07.463Z,988.4
2018-05-04T07:28:09.898Z,987.9
2018-05-04T07:29:11.614Z,988
2018-05-04T07:30:13.031Z,988.7
2018-05-04T07:31:14.416Z,989
2018-05-04T07:32:15.891Z,988.1
2018-05-04T07:33:17.376Z,987.7
2018-05-04T07:34:19.402Z,987.4
2018-05-04T07:35:20.923Z,987.6
2018-05-04T07:36:22.431Z,988.5
2018-05-04T07:37:23.948Z,988.9
2018-05-04T07:38:25.490Z,988.1
2018-05-04T07:39:27.088Z,987.9
2018-05-04T07:40:28.481Z,987.7
2018-05-04T07:41:30.366Z,987.7
2018-05-04T07:42:31.903Z,987.7
2018-05-04T07:43:33.312Z,988.5
2018-05-04T07:44:37.264Z,988.8
2018-05-04T07:45:38.702Z,988.1
2018-05-04T07:46:40.181Z,988.3
2018-05-04T07:47:41.630Z,988.3
2018-05-04T07:48:43.093Z,988.5
2018-05-04T07:49:44.520Z,988.5
2018-05-04T07:50:46.041Z,988.4
2018-05-04T07:51:47.507Z,987.9
2018-05-04T07:52:49.125Z,987.5
2018-05-04T07:53:50.547Z,987.7
2018-05-04T07:54:54.644Z,987.6
2018-05-04T07:55:56.094Z,987.7
2018-05-04T07:56:57.616Z,987.8
2018-05-04T07:57:59.157Z,987.7
2018-05-04T07:59:00.828Z,987.7
2018-05-04T08:00:04.575Z,987.8
2018-05-04T08:01:07.782Z,988
2018-05-04T08:02:09.477Z,987.7
2018-05-04T08:03:11.121Z,987.8
2018-05-04T08:04:12.595Z,987.9
2018-05-04T08:05:14.115Z,988.6
2018-05-04T08:06:15.599Z,989.2
2018-05-04T08:07:17.067Z,988.5
2018-05-04T08:08:18.520Z,988.7
2018-05-04T08:09:20.306Z,988
2018-05-04T08:10:22.001Z,987.8
2018-05-04T08:11:23.370Z,987.8
2018-05-04T08:12:24.740Z,988.8
2018-05-04T08:13:28.706Z,988.9
2018-05-04T08:14:30.144Z,988.6
2018-05-04T08:15:31.738Z,988
2018-05-04T08:16:33.129Z,987.7
2018-05-04T08:17:37.226Z,987.6
2018-05-04T08:18:38.689Z,988.1
2018-05-04T08:19:40.076Z,987.8
2018-05-04T08:20:41.723Z,988.1
2018-05-04T08:21:43.113Z,988.3
2018-05-04T08:22:44.493Z,988.2
2018-05-04T08:23:45.919Z,987.8
2018-05-04T08:24:47.372Z,987.7
2018-05-04T08:25:50.875Z,987.7
2018-05-04T08:26:52.339Z,987.8
2018-05-04T08:27:53.789Z,987.8
2018-05-04T08:28:55.300Z,987.8
2018-05-04T08:29:56.825Z,988.2
2018-05-04T08:30:59.468Z,988.6
2018-05-04T08:32:01.110Z,988.1
2018-05-04T08:33:02.647Z,987.7
2018-05-04T08:34:04.064Z,987.6
2018-05-04T08:35:05.829Z,987.7
2018-05-04T08:36:07.434Z,987.6
2018-05-04T08:37:08.899Z,989
2018-05-04T08:38:10.341Z,989.4
2018-05-04T08:39:12.132Z,988.2
2018-05-04T08:40:13.489Z,987.9
2018-05-04T08:41:15.163Z,988.2
2018-05-04T08:42:16.577Z,988.7
2018-05-04T08:43:18.102Z,988.1
2018-05-04T08:44:19.570Z,987.6
2018-05-04T08:45:20.990Z,987.9
2018-05-04T08:46:22.433Z,988.6
2018-05-04T08:47:23.898Z,989
2018-05-04T08:48:25.351Z,988.2
2018-05-04T08:49:26.756Z,987.6
2018-05-04T08:50:28.141Z,988.6
2018-05-04T08:51:29.588Z,988.3
2018-05-04T08:52:30.971Z,988.2
2018-05-04T08:53:32.417Z,987.6
2018-05-04T08:54:33.854Z,987.5
2018-05-04T08:55:35.220Z,988.1
2018-05-04T08:56:37.057Z,988
2018-05-04T08:57:38.466Z,987.6
2018-05-04T08:58:41.013Z,987.4
2018-05-04T08:59:42.629Z,987.4
2018-05-04T09:00:44.287Z,987.2
2018-05-04T09:01:46.580Z,987.7
2018-05-04T09:02:48.067Z,987.5
2018-05-04T09:03:49.541Z,987.4
2018-05-04T09:04:50.917Z,987.2
2018-05-04T09:05:52.418Z,987.1
2018-05-04T09:06:53.921Z,987.1
2018-05-04T09:07:55.379Z,987
2018-05-04T09:08:57.102Z,987
2018-05-04T09:09:59.857Z,987.7
2018-05-04T09:11:04.489Z,987.4
2018-05-04T09:12:06.076Z,987.1
2018-05-04T09:13:07.760Z,987.1
2018-05-04T09:14:09.220Z,987.4
2018-05-04T09:15:10.626Z,988.1
2018-05-04T09:16:12.199Z,988
2018-05-04T09:17:13.766Z,988.3
2018-05-04T09:18:15.193Z,987.8
2018-05-04T09:19:16.731Z,987.9
2018-05-04T09:20:18.178Z,987.8
2018-05-04T09:21:19.872Z,987.1
2018-05-04T09:22:21.386Z,987.1
2018-05-04T09:23:23.022Z,987
2018-05-04T09:24:24.457Z,986.9
2018-05-04T09:25:26.011Z,986.8
2018-05-04T09:26:29.584Z,987.4
2018-05-04T09:27:31.218Z,987.2
2018-05-04T09:28:33.007Z,987.5
2018-05-04T09:29:35.849Z,987.4
2018-05-04T09:30:37.541Z,986.9
2018-05-04T09:31:40.552Z,986.8
2018-05-04T09:32:42.538Z,986.6
2018-05-04T09:33:44.013Z,986.4
2018-05-04T09:34:45.525Z,986.4
2018-05-04T09:35:47.115Z,986.6
2018-05-04T09:37:09.381Z,987
2018-05-04T09:38:10.892Z,987.2
2018-05-04T09:39:15.364Z,987.1
2018-05-04T09:40:17.588Z,987.1
2018-05-04T09:41:21.541Z,986.9
2018-05-04T09:42:33.957Z,986.7
2018-05-04T09:43:35.929Z,986.6
2018-05-04T09:44:37.375Z,986.6
2018-05-04T09:45:38.836Z,986.5
2018-05-04T09:46:44.776Z,986.3
2018-05-04T09:47:47.556Z,986.6
2018-05-04T09:48:49.101Z,986.6
2018-05-04T09:49:52.751Z,986.5
2018-05-04T09:50:57.967Z,986.6
2018-05-04T09:51:59.631Z,986.7
2018-05-04T09:53:01.098Z,986.7
2018-05-04T09:54:02.752Z,986.5
2018-05-04T09:55:04.539Z,986.4
2018-05-04T09:56:06.358Z,986.7
2018-05-04T09:57:08.078Z,986.4
2018-05-04T09:58:09.572Z,986.4
2018-05-04T09:59:11.068Z,986.4
2018-05-04T10:00:12.696Z,986.4
2018-05-04T10:01:14.443Z,986.2
2018-05-04T10:02:16.043Z,986.3
2018-05-04T10:03:25.168Z,986
2018-05-04T10:04:27.038Z,986.3
2018-05-04T10:05:28.799Z,986.4
2018-05-04T10:06:30.860Z,986.3
2018-05-04T10:07:32.609Z,986.3
2018-05-04T10:08:36.299Z,986.2
2018-05-04T10:09:38.374Z,986.1
2018-05-04T10:10:40.593Z,986.2
2018-05-04T10:11:42.202Z,986
2018-05-04T10:12:43.907Z,986.2
2018-05-04T10:13:51.170Z,986.1
2018-05-04T10:14:52.934Z,986.2
2018-05-04T10:15:54.388Z,986.2
2018-05-04T10:16:55.943Z,986.2
2018-05-04T10:17:57.568Z,986.2
2018-05-04T10:18:59.305Z,986.2
2018-05-04T10:20:01.467Z,986.2
2018-05-04T10:21:03.424Z,986.2
2018-05-04T10:22:05.067Z,986.2
2018-05-04T10:23:06.560Z,986.1
2018-05-04T10:24:08.376Z,986
2018-05-04T10:25:11.694Z,986.1
2018-05-04T10:26:13.470Z,986.1
2018-05-04T10:27:21.767Z,986
2018-05-04T10:28:23.449Z,985.9
2018-05-04T10:29:24.904Z,986.1
2018-05-04T10:30:26.469Z,986.1
2018-05-04T10:31:29.544Z,986.1
2018-05-04T10:32:31.388Z,986
2018-05-04T10:33:33.086Z,986.1
2018-05-04T10:34:34.696Z,986.1
2018-05-04T10:35:36.267Z,986
2018-05-04T10:36:42.137Z,986
2018-05-04T10:37:46.571Z,985.9
2018-05-04T10:38:47.996Z,986
2018-05-04T10:39:49.412Z,986
2018-05-04T10:40:50.971Z,986
2018-05-04T10:41:54.151Z,986
2018-05-04T10:42:55.781Z,985.9
2018-05-04T10:43:57.320Z,986
2018-05-04T10:44:58.718Z,986
2018-05-04T10:46:04.238Z,986
2018-05-04T10:47:08.290Z,986
2018-05-04T10:48:09.765Z,986
2018-05-04T10:49:11.423Z,986
2018-05-04T10:50:17.767Z,986.1
2018-05-04T10:51:19.341Z,986
2018-05-04T10:52:20.721Z,985.9
2018-05-04T10:53:25.647Z,985.9
2018-05-04T10:54:27.551Z,985.9
2018-05-04T10:55:31.164Z,985.7
2018-05-04T10:56:33.203Z,985.9
2018-05-04T10:57:35.516Z,985.8
2018-05-04T10:58:38.160Z,985.8
2018-05-04T10:59:40.881Z,985.7
2018-05-04T11:00:42.945Z,985.8
2018-05-04T11:01:47.044Z,985.8
2018-05-04T11:02:48.778Z,985.9
2018-05-04T11:03:50.693Z,985.7
2018-05-04T11:04:52.236Z,986
2018-05-04T11:05:55.084Z,985.8
2018-05-04T11:06:57.599Z,985.8
2018-05-04T11:07:59.445Z,985.9
2018-05-04T11:09:02.433Z,986
2018-05-04T11:10:07.445Z,985.8
2018-05-04T11:11:09.093Z,985.9
2018-05-04T11:12:11.071Z,985.8
2018-05-04T11:13:13.405Z,985.8
2018-05-04T11:14:15.239Z,985.8
2018-05-04T11:15:16.750Z,985.8
2018-05-04T11:16:18.228Z,985.8
2018-05-04T11:17:36.257Z,985.8
2018-05-04T11:18:38.032Z,985.7
2018-05-04T11:19:40.167Z,985.6
2018-05-04T11:20:41.701Z,985.8
2018-05-04T11:21:44.930Z,985.8
2018-05-04T11:22:46.515Z,985.7
2018-05-04T11:23:50.574Z,985.6
2018-05-04T11:24:54.242Z,985.8
2018-05-04T11:25:56.382Z,985.9
2018-05-04T11:26:58.878Z,985.8
2018-05-04T11:28:07.495Z,985.5
2018-05-04T11:29:09.087Z,985.9
2018-05-04T11:30:14.365Z,985.8
2018-05-04T11:31:15.967Z,985.7
2018-05-04T11:32:17.554Z,985.9
2018-05-04T11:33:19.364Z,985.9
2018-05-04T11:34:28.824Z,985.9
2018-05-04T11:35:30.643Z,985.9
2018-05-04T11:36:33.195Z,985.9
2018-05-04T11:37:35.094Z,985.9
2018-05-04T11:38:37.061Z,985.9
2018-05-04T11:39:38.543Z,985.9
2018-05-04T11:40:40.643Z,986
2018-05-04T11:41:44.892Z,986
2018-05-04T11:42:46.684Z,985.9
2018-05-04T11:43:48.682Z,985.8
2018-05-04T11:44:50.471Z,985.9
2018-05-04T11:45:52.417Z,985.9
2018-05-04T11:46:54.081Z,985.7
2018-05-04T11:47:56.761Z,985.9
2018-05-04T11:49:00.751Z,985.9
2018-05-04T11:51:35.985Z,986
2018-05-04T11:52:37.557Z,985.9
2018-05-04T11:53:39.251Z,985.9
2018-05-04T11:54:41.867Z,985.7
2018-05-04T11:55:47.218Z,986
2018-05-04T11:56:48.961Z,985.9
2018-05-04T11:57:52.923Z,985.9
2018-05-04T11:58:54.764Z,985.9
2018-05-04T12:00:07.082Z,985.9
2018-05-04T12:01:08.950Z,985.9
2018-05-04T12:02:10.917Z,986
2018-05-04T12:03:22.050Z,986
2018-05-04T12:04:23.539Z,985.9
2018-05-04T12:06:36.077Z,986
2018-05-04T12:07:40.791Z,985.9
2018-05-04T12:08:42.326Z,986
2018-05-04T12:09:45.831Z,985.9
2018-05-04T12:10:49.241Z,985.9
2018-05-04T12:11:50.895Z,985.9
2018-05-04T12:12:54.648Z,985.8
2018-05-04T12:13:56.066Z,985.9
2018-05-04T12:14:57.522Z,985.8
2018-05-04T12:15:59.016Z,986
2018-05-04T12:17:00.599Z,985.9
2018-05-04T12:18:06.493Z,986
2018-05-04T12:19:08.326Z,985.8
2018-05-04T12:20:14.285Z,986
2018-05-04T12:21:15.787Z,986
2018-05-04T12:22:17.223Z,985.9
2018-05-04T12:23:18.559Z,985.8
2018-05-04T12:24:19.917Z,985.9
2018-05-04T12:25:21.296Z,986
2018-05-04T12:26:22.710Z,985.9
2018-05-04T12:27:27.326Z,985.8
2018-05-04T12:28:28.764Z,985.9
2018-05-04T12:29:32.942Z,986
2018-05-04T12:30:34.541Z,986
2018-05-04T12:31:35.950Z,986
2018-05-04T12:32:44.203Z,985.9
2018-05-04T12:33:47.149Z,985.8
2018-05-04T12:34:48.535Z,985.9
2018-05-04T12:35:49.962Z,986
2018-05-04T12:36:51.492Z,985.8
2018-05-04T12:37:52.857Z,986
2018-05-04T12:38:54.400Z,986
2018-05-04T12:39:55.849Z,985.8
2018-05-04T12:40:57.198Z,986
2018-05-04T12:41:58.617Z,986.1
2018-05-04T12:43:00.016Z,985.8
2018-05-04T12:44:03.956Z,986
2018-05-04T12:45:08.257Z,986
2018-05-04T12:46:12.687Z,986.1
2018-05-04T12:47:14.230Z,986
2018-05-04T12:48:15.620Z,986.1
2018-05-04T12:49:17.051Z,986
2018-05-04T12:50:18.465Z,985.8
2018-05-04T12:51:19.878Z,986.1
2018-05-04T12:52:21.647Z,986
2018-05-04T12:53:23.081Z,986
2018-05-04T12:54:24.523Z,986
2018-05-04T12:55:25.894Z,985.8
2018-05-04T12:56:29.031Z,986
2018-05-04T12:57:30.457Z,986
2018-05-04T12:58:31.856Z,986
2018-05-04T12:59:33.354Z,986
2018-05-04T13:00:34.807Z,986
2018-05-04T13:01:46.268Z,985.9
2018-05-04T13:02:56.420Z,986
2018-05-04T13:04:08.614Z,985.8
2018-05-04T13:05:12.915Z,985.8
2018-05-04T13:06:14.468Z,985.7
2018-05-04T13:08:49.705Z,985.9
2018-05-04T13:09:51.200Z,985.7
2018-05-04T13:10:52.689Z,985.8
2018-05-04T13:11:54.324Z,986
2018-05-04T13:12:55.811Z,985.9
2018-05-04T13:13:57.347Z,985.9
2018-05-04T13:14:58.733Z,985.9
2018-05-04T13:16:02.270Z,985.9
2018-05-04T13:17:05.213Z,985.9
2018-05-04T13:18:06.639Z,985.8
2018-05-04T13:19:08.180Z,985.9
2018-05-04T13:20:09.567Z,985.8
2018-05-04T13:21:11.038Z,985.6
2018-05-04T13:22:19.879Z,985.9
2018-05-04T13:23:21.277Z,985.8
2018-05-04T13:24:22.667Z,985.8
2018-05-04T13:25:24.078Z,985.7
2018-05-04T13:26:26.484Z,985.8
2018-05-04T13:27:27.946Z,985.7
2018-05-04T13:28:30.945Z,985.7
2018-05-04T13:29:32.446Z,985.7
2018-05-04T13:30:33.853Z,985.8
2018-05-04T13:31:35.254Z,985.7